sensor_id;sensor_type;location;lat;lon;timestamp;temperature;humidity
53208;DHT22;39093;52.788;6.940;2023-02-16T00:00:22;6.50;99.90
53208;DHT22;39093;52.788;6.940;2023-02-16T00:02:50;6.40;99.90
53208;DHT22;39093;52.788;6.940;2023-02-16T00:07:54;6.50;99.90
53208;DHT22;39093;52.788;6.940;2023-02-16T00:10:21;6.40;99.90
53208;DHT22;39093;52.788;6.940;2023-02-16T00:12:49;6.40;99.90
53208;DHT22;39093;52.788;6.940;2023-02-16T00:15:34;6.40;99.90
53208;DHT22;39093;52.788;6.940;2023-02-16T00:18:02;6.50;99.90
53208;DHT22;39093;52.788;6.940;2023-02-16T00:20:31;6.40;99.90
53208;DHT22;39093;52.788;6.940;2023-02-16T00:22:58;6.30;99.90
53208;DHT22;39093;52.788;6.940;2023-02-16T00:25:25;6.40;99.90
53208;DHT22;39093;52.788;6.940;2023-02-16T00:27:52;6.40;99.90
53208;DHT22;39093;52.788;6.940;2023-02-16T00:30:20;6.40;99.90
53208;DHT22;39093;52.788;6.940;2023-02-16T00:32:47;6.30;99.90
53208;DHT22;39093;52.788;6.940;2023-02-16T00:35:20;6.30;99.90
53208;DHT22;39093;52.788;6.940;2023-02-16T00:37:47;6.30;99.90
53208;DHT22;39093;52.788;6.940;2023-02-16T00:40:15;6.20;99.90
53208;DHT22;39093;52.788;6.940;2023-02-16T00:42:46;6.20;99.90
53208;DHT22;39093;52.788;6.940;2023-02-16T00:45:16;6.30;99.90
53208;DHT22;39093;52.788;6.940;2023-02-16T00:47:48;6.30;99.90
53208;DHT22;39093;52.788;6.940;2023-02-16T00:50:22;6.30;99.90
53208;DHT22;39093;52.788;6.940;2023-02-16T00:52:50;6.30;99.90
53208;DHT22;39093;52.788;6.940;2023-02-16T00:55:22;6.30;99.90
53208;DHT22;39093;52.788;6.940;2023-02-16T00:57:55;6.30;99.90
53208;DHT22;39093;52.788;6.940;2023-02-16T01:02:50;6.40;99.90
53208;DHT22;39093;52.788;6.940;2023-02-16T01:05:18;6.30;99.90
53208;DHT22;39093;52.788;6.940;2023-02-16T01:07:45;6.20;99.90
53208;DHT22;39093;52.788;6.940;2023-02-16T01:10:31;6.20;99.90
53208;DHT22;39093;52.788;6.940;2023-02-16T01:13:17;6.40;99.90
53208;DHT22;39093;52.788;6.940;2023-02-16T01:15:44;6.20;99.90
53208;DHT22;39093;52.788;6.940;2023-02-16T01:18:16;6.10;99.90
53208;DHT22;39093;52.788;6.940;2023-02-16T01:20:44;6.10;99.90
53208;DHT22;39093;52.788;6.940;2023-02-16T01:23:11;6.00;99.90
53208;DHT22;39093;52.788;6.940;2023-02-16T01:25:39;6.10;99.90
53208;DHT22;39093;52.788;6.940;2023-02-16T01:28:25;6.10;99.90
53208;DHT22;39093;52.788;6.940;2023-02-16T01:30:52;6.00;99.90
53208;DHT22;39093;52.788;6.940;2023-02-16T01:33:20;6.00;99.90
53208;DHT22;39093;52.788;6.940;2023-02-16T01:35:47;6.00;99.90
53208;DHT22;39093;52.788;6.940;2023-02-16T01:38:18;6.00;99.90
53208;DHT22;39093;52.788;6.940;2023-02-16T01:40:54;5.90;99.90
53208;DHT22;39093;52.788;6.940;2023-02-16T01:43:40;5.90;99.90
53208;DHT22;39093;52.788;6.940;2023-02-16T01:46:20;5.90;99.90
53208;DHT22;39093;52.788;6.940;2023-02-16T01:48:48;5.90;99.90
53208;DHT22;39093;52.788;6.940;2023-02-16T01:51:27;5.90;99.90
53208;DHT22;39093;52.788;6.940;2023-02-16T01:54:28;5.90;99.90
53208;DHT22;39093;52.788;6.940;2023-02-16T02:02:25;6.00;99.90
53208;DHT22;39093;52.788;6.940;2023-02-16T02:05:23;5.80;99.90
53208;DHT22;39093;52.788;6.940;2023-02-16T02:08:24;5.80;99.90
53208;DHT22;39093;52.788;6.940;2023-02-16T02:14:04;5.80;99.90
53208;DHT22;39093;52.788;6.940;2023-02-16T02:16:32;5.70;99.90
53208;DHT22;39093;52.788;6.940;2023-02-16T02:18:59;5.70;99.90
53208;DHT22;39093;52.788;6.940;2023-02-16T02:25:10;5.60;99.90
53208;DHT22;39093;52.788;6.940;2023-02-16T02:28:05;5.80;99.90
53208;DHT22;39093;52.788;6.940;2023-02-16T02:35:48;5.60;99.90
53208;DHT22;39093;52.788;6.940;2023-02-16T02:38:27;5.60;99.90
53208;DHT22;39093;52.788;6.940;2023-02-16T02:41:11;5.60;99.90
53208;DHT22;39093;52.788;6.940;2023-02-16T02:43:51;5.50;99.90
53208;DHT22;39093;52.788;6.940;2023-02-16T02:46:24;5.60;99.90
53208;DHT22;39093;52.788;6.940;2023-02-16T02:48:53;5.50;99.90
53208;DHT22;39093;52.788;6.940;2023-02-16T02:51:20;5.50;99.90
53208;DHT22;39093;52.788;6.940;2023-02-16T02:54:23;5.60;99.90
53208;DHT22;39093;52.788;6.940;2023-02-16T03:00:40;5.30;99.90
53208;DHT22;39093;52.788;6.940;2023-02-16T03:03:27;5.30;99.90
53208;DHT22;39093;52.788;6.940;2023-02-16T03:06:03;5.30;99.90
53208;DHT22;39093;52.788;6.940;2023-02-16T03:08:34;5.20;99.90
53208;DHT22;39093;52.788;6.940;2023-02-16T03:11:20;5.20;99.90
53208;DHT22;39093;52.788;6.940;2023-02-16T03:14:16;5.20;99.90
53208;DHT22;39093;52.788;6.940;2023-02-16T03:16:51;5.20;99.90
53208;DHT22;39093;52.788;6.940;2023-02-16T03:19:39;5.10;99.90
53208;DHT22;39093;52.788;6.940;2023-02-16T03:22:25;5.10;99.90
53208;DHT22;39093;52.788;6.940;2023-02-16T03:25:11;5.20;99.90
53208;DHT22;39093;52.788;6.940;2023-02-16T03:27:58;5.00;99.90
53208;DHT22;39093;52.788;6.940;2023-02-16T03:30:45;5.00;99.90
53208;DHT22;39093;52.788;6.940;2023-02-16T03:33:13;5.00;99.90
53208;DHT22;39093;52.788;6.940;2023-02-16T03:35:41;5.00;99.90
53208;DHT22;39093;52.788;6.940;2023-02-16T03:38:09;5.00;99.90
53208;DHT22;39093;52.788;6.940;2023-02-16T03:40:36;5.00;99.90
53208;DHT22;39093;52.788;6.940;2023-02-16T03:43:07;5.00;99.90
53208;DHT22;39093;52.788;6.940;2023-02-16T03:45:36;5.00;99.90
53208;DHT22;39093;52.788;6.940;2023-02-16T03:48:04;5.00;99.90
53208;DHT22;39093;52.788;6.940;2023-02-16T03:50:32;5.00;99.90
53208;DHT22;39093;52.788;6.940;2023-02-16T03:52:58;5.00;99.90
53208;DHT22;39093;52.788;6.940;2023-02-16T03:55:40;5.10;99.90
53208;DHT22;39093;52.788;6.940;2023-02-16T03:58:10;5.00;99.90
53208;DHT22;39093;52.788;6.940;2023-02-16T04:00:38;5.00;99.90
53208;DHT22;39093;52.788;6.940;2023-02-16T04:03:06;5.00;99.90
53208;DHT22;39093;52.788;6.940;2023-02-16T04:05:34;5.00;99.90
53208;DHT22;39093;52.788;6.940;2023-02-16T04:08:02;5.00;99.90
53208;DHT22;39093;52.788;6.940;2023-02-16T04:10:29;5.00;99.90
53208;DHT22;39093;52.788;6.940;2023-02-16T04:12:56;5.00;99.90
53208;DHT22;39093;52.788;6.940;2023-02-16T04:15:26;5.00;99.90
53208;DHT22;39093;52.788;6.940;2023-02-16T04:17:53;5.10;99.90
53208;DHT22;39093;52.788;6.940;2023-02-16T04:20:26;5.00;99.90
53208;DHT22;39093;52.788;6.940;2023-02-16T04:22:53;5.00;99.90
53208;DHT22;39093;52.788;6.940;2023-02-16T04:25:20;5.10;99.90
53208;DHT22;39093;52.788;6.940;2023-02-16T04:27:48;5.10;99.90
53208;DHT22;39093;52.788;6.940;2023-02-16T04:30:20;5.10;99.90
53208;DHT22;39093;52.788;6.940;2023-02-16T04:32:48;5.20;99.90
53208;DHT22;39093;52.788;6.940;2023-02-16T04:35:16;5.20;99.90
53208;DHT22;39093;52.788;6.940;2023-02-16T04:37:43;5.20;99.90
53208;DHT22;39093;52.788;6.940;2023-02-16T04:40:11;5.20;99.90
53208;DHT22;39093;52.788;6.940;2023-02-16T04:42:42;5.20;99.90
53208;DHT22;39093;52.788;6.940;2023-02-16T04:45:10;5.20;99.90
53208;DHT22;39093;52.788;6.940;2023-02-16T04:47:37;5.20;99.90
53208;DHT22;39093;52.788;6.940;2023-02-16T04:50:04;5.30;99.90
53208;DHT22;39093;52.788;6.940;2023-02-16T04:52:31;5.30;99.90
53208;DHT22;39093;52.788;6.940;2023-02-16T04:54:59;5.30;99.90
53208;DHT22;39093;52.788;6.940;2023-02-16T04:57:26;5.30;99.90
53208;DHT22;39093;52.788;6.940;2023-02-16T04:59:53;5.20;99.90
53208;DHT22;39093;52.788;6.940;2023-02-16T05:02:20;5.20;99.90
53208;DHT22;39093;52.788;6.940;2023-02-16T05:04:47;5.30;99.90
53208;DHT22;39093;52.788;6.940;2023-02-16T05:07:14;5.40;99.90
53208;DHT22;39093;52.788;6.940;2023-02-16T05:09:41;5.30;99.90
53208;DHT22;39093;52.788;6.940;2023-02-16T05:12:10;5.30;99.90
53208;DHT22;39093;52.788;6.940;2023-02-16T05:14:55;5.30;99.90
53208;DHT22;39093;52.788;6.940;2023-02-16T05:17:24;5.40;99.90
53208;DHT22;39093;52.788;6.940;2023-02-16T05:19:57;5.40;99.90
53208;DHT22;39093;52.788;6.940;2023-02-16T05:22:25;5.30;99.90
53208;DHT22;39093;52.788;6.940;2023-02-16T05:24:54;5.40;99.90
53208;DHT22;39093;52.788;6.940;2023-02-16T05:27:23;5.40;99.90
53208;DHT22;39093;52.788;6.940;2023-02-16T05:29:50;5.40;99.90
53208;DHT22;39093;52.788;6.940;2023-02-16T05:32:17;5.30;99.90
53208;DHT22;39093;52.788;6.940;2023-02-16T05:34:44;5.40;99.90
53208;DHT22;39093;52.788;6.940;2023-02-16T05:37:12;5.40;99.90
53208;DHT22;39093;52.788;6.940;2023-02-16T05:39:40;5.40;99.90
53208;DHT22;39093;52.788;6.940;2023-02-16T05:42:07;5.30;99.90
53208;DHT22;39093;52.788;6.940;2023-02-16T05:44:35;5.30;99.90
53208;DHT22;39093;52.788;6.940;2023-02-16T05:47:02;5.40;99.90
53208;DHT22;39093;52.788;6.940;2023-02-16T05:49:29;5.40;99.90
53208;DHT22;39093;52.788;6.940;2023-02-16T05:51:56;5.40;99.90
53208;DHT22;39093;52.788;6.940;2023-02-16T05:54:23;5.40;99.90
53208;DHT22;39093;52.788;6.940;2023-02-16T05:56:51;5.40;99.90
53208;DHT22;39093;52.788;6.940;2023-02-16T05:59:18;5.40;99.90
53208;DHT22;39093;52.788;6.940;2023-02-16T06:01:45;5.40;99.90
53208;DHT22;39093;52.788;6.940;2023-02-16T06:04:17;5.60;99.90
53208;DHT22;39093;52.788;6.940;2023-02-16T06:06:44;5.40;99.90
53208;DHT22;39093;52.788;6.940;2023-02-16T06:09:11;5.40;99.90
53208;DHT22;39093;52.788;6.940;2023-02-16T06:11:38;5.40;99.90
53208;DHT22;39093;52.788;6.940;2023-02-16T06:14:16;5.40;99.90
53208;DHT22;39093;52.788;6.940;2023-02-16T06:16:45;5.40;99.90
53208;DHT22;39093;52.788;6.940;2023-02-16T06:19:14;5.50;99.90
53208;DHT22;39093;52.788;6.940;2023-02-16T06:21:42;5.50;99.90
53208;DHT22;39093;52.788;6.940;2023-02-16T06:24:10;5.50;99.90
53208;DHT22;39093;52.788;6.940;2023-02-16T06:26:37;5.50;99.90
53208;DHT22;39093;52.788;6.940;2023-02-16T06:29:05;5.60;99.90
53208;DHT22;39093;52.788;6.940;2023-02-16T06:31:32;5.50;99.90
53208;DHT22;39093;52.788;6.940;2023-02-16T06:34:02;5.50;99.90
53208;DHT22;39093;52.788;6.940;2023-02-16T06:36:30;5.50;99.90
53208;DHT22;39093;52.788;6.940;2023-02-16T06:38:57;5.50;99.90
53208;DHT22;39093;52.788;6.940;2023-02-16T06:41:24;5.50;99.90
53208;DHT22;39093;52.788;6.940;2023-02-16T06:43:58;5.40;99.90
53208;DHT22;39093;52.788;6.940;2023-02-16T06:46:26;5.50;99.90
53208;DHT22;39093;52.788;6.940;2023-02-16T06:48:53;5.50;99.90
53208;DHT22;39093;52.788;6.940;2023-02-16T06:51:20;5.40;99.90
53208;DHT22;39093;52.788;6.940;2023-02-16T06:53:47;5.40;99.90
53208;DHT22;39093;52.788;6.940;2023-02-16T06:56:14;5.50;99.90
53208;DHT22;39093;52.788;6.940;2023-02-16T06:58:42;5.40;99.90
53208;DHT22;39093;52.788;6.940;2023-02-16T07:01:09;5.40;99.90
53208;DHT22;39093;52.788;6.940;2023-02-16T07:03:36;5.40;99.90
53208;DHT22;39093;52.788;6.940;2023-02-16T07:06:03;5.50;99.90
53208;DHT22;39093;52.788;6.940;2023-02-16T07:08:30;5.50;99.90
53208;DHT22;39093;52.788;6.940;2023-02-16T07:10:57;5.50;99.90
53208;DHT22;39093;52.788;6.940;2023-02-16T07:13:24;5.50;99.90
53208;DHT22;39093;52.788;6.940;2023-02-16T07:15:51;5.50;99.90
53208;DHT22;39093;52.788;6.940;2023-02-16T07:18:18;5.50;99.90
53208;DHT22;39093;52.788;6.940;2023-02-16T07:20:46;5.60;99.90
53208;DHT22;39093;52.788;6.940;2023-02-16T07:23:13;5.60;99.90
53208;DHT22;39093;52.788;6.940;2023-02-16T07:25:39;5.60;99.90
53208;DHT22;39093;52.788;6.940;2023-02-16T07:28:06;5.70;99.90
53208;DHT22;39093;52.788;6.940;2023-02-16T07:30:34;5.60;99.90
53208;DHT22;39093;52.788;6.940;2023-02-16T07:33:02;5.70;99.90
53208;DHT22;39093;52.788;6.940;2023-02-16T07:35:29;5.70;99.90
53208;DHT22;39093;52.788;6.940;2023-02-16T07:37:56;5.70;99.90
53208;DHT22;39093;52.788;6.940;2023-02-16T07:40:23;5.80;99.90
53208;DHT22;39093;52.788;6.940;2023-02-16T07:42:50;5.90;99.90
53208;DHT22;39093;52.788;6.940;2023-02-16T07:45:17;5.90;99.90
53208;DHT22;39093;52.788;6.940;2023-02-16T07:47:44;5.90;99.90
53208;DHT22;39093;52.788;6.940;2023-02-16T07:50:11;5.90;99.90
53208;DHT22;39093;52.788;6.940;2023-02-16T07:52:38;5.90;99.90
53208;DHT22;39093;52.788;6.940;2023-02-16T07:55:05;6.00;99.90
53208;DHT22;39093;52.788;6.940;2023-02-16T07:57:32;6.00;99.90
53208;DHT22;39093;52.788;6.940;2023-02-16T07:59:59;6.00;99.90
53208;DHT22;39093;52.788;6.940;2023-02-16T08:02:26;6.10;99.90
53208;DHT22;39093;52.788;6.940;2023-02-16T08:04:53;6.10;99.90
53208;DHT22;39093;52.788;6.940;2023-02-16T08:07:20;6.10;99.90
53208;DHT22;39093;52.788;6.940;2023-02-16T08:09:47;6.10;99.90
53208;DHT22;39093;52.788;6.940;2023-02-16T08:12:15;6.10;99.90
53208;DHT22;39093;52.788;6.940;2023-02-16T08:14:44;6.30;99.90
53208;DHT22;39093;52.788;6.940;2023-02-16T08:17:14;6.20;99.90
53208;DHT22;39093;52.788;6.940;2023-02-16T08:19:41;6.30;99.90
53208;DHT22;39093;52.788;6.940;2023-02-16T08:22:08;6.40;99.90
53208;DHT22;39093;52.788;6.940;2023-02-16T08:24:35;6.40;99.90
53208;DHT22;39093;52.788;6.940;2023-02-16T08:27:04;6.30;99.90
53208;DHT22;39093;52.788;6.940;2023-02-16T08:29:31;6.20;99.90
53208;DHT22;39093;52.788;6.940;2023-02-16T08:31:58;6.40;99.90
53208;DHT22;39093;52.788;6.940;2023-02-16T08:34:25;6.30;99.90
53208;DHT22;39093;52.788;6.940;2023-02-16T08:36:56;6.40;99.90
53208;DHT22;39093;52.788;6.940;2023-02-16T08:39:25;6.40;99.90
53208;DHT22;39093;52.788;6.940;2023-02-16T08:41:53;6.40;99.90
53208;DHT22;39093;52.788;6.940;2023-02-16T08:44:22;6.40;99.90
53208;DHT22;39093;52.788;6.940;2023-02-16T08:46:51;6.40;99.90
53208;DHT22;39093;52.788;6.940;2023-02-16T08:49:20;6.40;99.90
53208;DHT22;39093;52.788;6.940;2023-02-16T08:51:50;6.50;99.90
53208;DHT22;39093;52.788;6.940;2023-02-16T08:54:21;6.50;99.90
53208;DHT22;39093;52.788;6.940;2023-02-16T08:56:48;6.50;99.90
53208;DHT22;39093;52.788;6.940;2023-02-16T08:59:18;6.40;99.90
53208;DHT22;39093;52.788;6.940;2023-02-16T09:01:45;6.40;99.90
53208;DHT22;39093;52.788;6.940;2023-02-16T09:04:13;6.50;99.90
53208;DHT22;39093;52.788;6.940;2023-02-16T09:06:42;6.50;99.90
53208;DHT22;39093;52.788;6.940;2023-02-16T09:09:11;6.50;99.90
53208;DHT22;39093;52.788;6.940;2023-02-16T09:11:38;6.50;99.90
53208;DHT22;39093;52.788;6.940;2023-02-16T09:14:05;6.40;99.90
53208;DHT22;39093;52.788;6.940;2023-02-16T09:16:32;6.50;99.90
53208;DHT22;39093;52.788;6.940;2023-02-16T09:19:01;6.50;99.90
53208;DHT22;39093;52.788;6.940;2023-02-16T09:21:29;6.50;99.90
53208;DHT22;39093;52.788;6.940;2023-02-16T09:24:03;6.50;99.90
53208;DHT22;39093;52.788;6.940;2023-02-16T09:26:32;6.50;99.90
53208;DHT22;39093;52.788;6.940;2023-02-16T09:29:00;6.50;99.90
53208;DHT22;39093;52.788;6.940;2023-02-16T09:31:30;6.50;99.90
53208;DHT22;39093;52.788;6.940;2023-02-16T09:34:05;6.50;99.90
53208;DHT22;39093;52.788;6.940;2023-02-16T09:36:33;6.50;99.90
53208;DHT22;39093;52.788;6.940;2023-02-16T09:39:00;6.50;99.90
53208;DHT22;39093;52.788;6.940;2023-02-16T09:47:24;6.50;99.90
53208;DHT22;39093;52.788;6.940;2023-02-16T09:49:52;6.50;99.90
53208;DHT22;39093;52.788;6.940;2023-02-16T09:52:35;6.50;99.90
53208;DHT22;39093;52.788;6.940;2023-02-16T09:55:10;6.60;99.90
53208;DHT22;39093;52.788;6.940;2023-02-16T10:00:51;6.60;99.90
53208;DHT22;39093;52.788;6.940;2023-02-16T10:03:23;6.70;99.90
53208;DHT22;39093;52.788;6.940;2023-02-16T10:08:42;6.60;99.90
53208;DHT22;39093;52.788;6.940;2023-02-16T10:14:05;6.70;99.90
53208;DHT22;39093;52.788;6.940;2023-02-16T10:16:41;6.60;99.90
53208;DHT22;39093;52.788;6.940;2023-02-16T10:19:22;6.70;99.90
53208;DHT22;39093;52.788;6.940;2023-02-16T10:21:52;6.70;99.90
53208;DHT22;39093;52.788;6.940;2023-02-16T10:24:23;6.70;99.90
53208;DHT22;39093;52.788;6.940;2023-02-16T10:27:01;6.70;99.90
53208;DHT22;39093;52.788;6.940;2023-02-16T10:29:28;6.70;99.90
53208;DHT22;39093;52.788;6.940;2023-02-16T10:32:18;6.80;99.90
53208;DHT22;39093;52.788;6.940;2023-02-16T10:34:54;6.80;99.90
53208;DHT22;39093;52.788;6.940;2023-02-16T10:40:29;6.80;99.90
53208;DHT22;39093;52.788;6.940;2023-02-16T10:45:56;6.80;99.90
53208;DHT22;39093;52.788;6.940;2023-02-16T10:48:25;6.90;99.90
53208;DHT22;39093;52.788;6.940;2023-02-16T10:51:05;6.90;99.90
53208;DHT22;39093;52.788;6.940;2023-02-16T10:53:50;6.90;99.90
53208;DHT22;39093;52.788;6.940;2023-02-16T10:59:11;6.90;99.90
53208;DHT22;39093;52.788;6.940;2023-02-16T11:01:45;7.00;99.90
53208;DHT22;39093;52.788;6.940;2023-02-16T11:04:33;7.00;99.90
53208;DHT22;39093;52.788;6.940;2023-02-16T11:09:36;7.00;99.90
53208;DHT22;39093;52.788;6.940;2023-02-16T11:15:05;7.00;99.90
53208;DHT22;39093;52.788;6.940;2023-02-16T11:17:51;7.00;99.90
53208;DHT22;39093;52.788;6.940;2023-02-16T11:20:50;7.00;99.90
53208;DHT22;39093;52.788;6.940;2023-02-16T11:28:37;7.00;99.90
53208;DHT22;39093;52.788;6.940;2023-02-16T11:31:31;6.90;99.90
53208;DHT22;39093;52.788;6.940;2023-02-16T11:34:10;6.90;99.90
53208;DHT22;39093;52.788;6.940;2023-02-16T11:36:44;6.90;99.90
53208;DHT22;39093;52.788;6.940;2023-02-16T11:39:23;6.90;99.90
53208;DHT22;39093;52.788;6.940;2023-02-16T11:41:53;6.90;99.90
53208;DHT22;39093;52.788;6.940;2023-02-16T11:47:00;6.90;99.90
53208;DHT22;39093;52.788;6.940;2023-02-16T11:51:56;6.90;99.90
53208;DHT22;39093;52.788;6.940;2023-02-16T11:54:23;6.90;99.90
53208;DHT22;39093;52.788;6.940;2023-02-16T11:57:03;7.00;99.90
53208;DHT22;39093;52.788;6.940;2023-02-16T11:59:34;7.00;99.90
53208;DHT22;39093;52.788;6.940;2023-02-16T12:02:31;7.00;99.90
53208;DHT22;39093;52.788;6.940;2023-02-16T12:10:56;7.10;99.90
53208;DHT22;39093;52.788;6.940;2023-02-16T12:13:40;7.10;99.90
53208;DHT22;39093;52.788;6.940;2023-02-16T12:21:50;7.30;99.90
53208;DHT22;39093;52.788;6.940;2023-02-16T12:27:17;7.50;99.90
53208;DHT22;39093;52.788;6.940;2023-02-16T12:30:00;7.60;99.90
53208;DHT22;39093;52.788;6.940;2023-02-16T12:43:43;8.20;99.90
53208;DHT22;39093;52.788;6.940;2023-02-16T12:46:34;8.30;99.90
53208;DHT22;39093;52.788;6.940;2023-02-16T12:49:24;8.50;99.90
53208;DHT22;39093;52.788;6.940;2023-02-16T12:52:07;8.70;99.90
53208;DHT22;39093;52.788;6.940;2023-02-16T12:54:48;8.80;99.90
53208;DHT22;39093;52.788;6.940;2023-02-16T12:57:20;8.90;99.90
53208;DHT22;39093;52.788;6.940;2023-02-16T13:00:19;9.00;99.90
53208;DHT22;39093;52.788;6.940;2023-02-16T13:02:55;9.00;99.90
53208;DHT22;39093;52.788;6.940;2023-02-16T13:05:30;9.10;99.90
53208;DHT22;39093;52.788;6.940;2023-02-16T13:13:36;9.50;99.90
53208;DHT22;39093;52.788;6.940;2023-02-16T13:16:40;9.50;99.90
53208;DHT22;39093;52.788;6.940;2023-02-16T13:19:12;9.60;99.90
53208;DHT22;39093;52.788;6.940;2023-02-16T13:43:53;9.60;99.90
53208;DHT22;39093;52.788;6.940;2023-02-16T13:46:31;9.60;99.90
53208;DHT22;39093;52.788;6.940;2023-02-16T13:49:00;9.60;99.90
53208;DHT22;39093;52.788;6.940;2023-02-16T13:51:42;9.70;99.90
53208;DHT22;39093;52.788;6.940;2023-02-16T13:54:25;9.60;99.90
53208;DHT22;39093;52.788;6.940;2023-02-16T13:56:54;9.60;99.90
53208;DHT22;39093;52.788;6.940;2023-02-16T14:01:51;9.60;99.90
53208;DHT22;39093;52.788;6.940;2023-02-16T14:12:15;9.70;99.90
53208;DHT22;39093;52.788;6.940;2023-02-16T14:17:31;9.40;99.90
53208;DHT22;39093;52.788;6.940;2023-02-16T14:20:10;9.40;99.90
53208;DHT22;39093;52.788;6.940;2023-02-16T14:30:57;9.00;99.90
53208;DHT22;39093;52.788;6.940;2023-02-16T14:33:46;8.90;99.90
53208;DHT22;39093;52.788;6.940;2023-02-16T14:36:20;8.90;99.90
53208;DHT22;39093;52.788;6.940;2023-02-16T14:38:48;9.00;99.90
53208;DHT22;39093;52.788;6.940;2023-02-16T14:52:38;9.10;99.90
53208;DHT22;39093;52.788;6.940;2023-02-16T14:55:13;9.20;99.90
53208;DHT22;39093;52.788;6.940;2023-02-16T15:01:12;9.20;99.90
53208;DHT22;39093;52.788;6.940;2023-02-16T15:08:52;9.00;99.90
53208;DHT22;39093;52.788;6.940;2023-02-16T15:11:36;9.00;99.90
53208;DHT22;39093;52.788;6.940;2023-02-16T15:14:27;8.90;99.90
53208;DHT22;39093;52.788;6.940;2023-02-16T15:16:55;8.90;99.90
53208;DHT22;39093;52.788;6.940;2023-02-16T15:19:28;8.90;99.90
53208;DHT22;39093;52.788;6.940;2023-02-16T15:22:17;8.90;99.90
53208;DHT22;39093;52.788;6.940;2023-02-16T15:27:39;8.90;99.90
53208;DHT22;39093;52.788;6.940;2023-02-16T15:30:22;8.90;99.90
53208;DHT22;39093;52.788;6.940;2023-02-16T15:32:59;8.80;99.90
53208;DHT22;39093;52.788;6.940;2023-02-16T15:35:38;8.80;99.90
53208;DHT22;39093;52.788;6.940;2023-02-16T15:38:21;8.80;99.90
53208;DHT22;39093;52.788;6.940;2023-02-16T15:40:54;8.80;99.90
53208;DHT22;39093;52.788;6.940;2023-02-16T15:43:34;8.80;99.90
53208;DHT22;39093;52.788;6.940;2023-02-16T15:46:05;8.70;99.90
53208;DHT22;39093;52.788;6.940;2023-02-16T15:48:36;8.80;99.90
53208;DHT22;39093;52.788;6.940;2023-02-16T15:51:13;8.80;99.90
53208;DHT22;39093;52.788;6.940;2023-02-16T15:56:47;8.70;99.90
53208;DHT22;39093;52.788;6.940;2023-02-16T16:02:16;8.70;99.90
53208;DHT22;39093;52.788;6.940;2023-02-16T16:04:57;8.70;99.90
53208;DHT22;39093;52.788;6.940;2023-02-16T16:10:07;8.60;99.90
53208;DHT22;39093;52.788;6.940;2023-02-16T16:12:37;8.60;99.90
53208;DHT22;39093;52.788;6.940;2023-02-16T16:15:05;8.60;99.90
53208;DHT22;39093;52.788;6.940;2023-02-16T16:17:36;8.60;99.90
53208;DHT22;39093;52.788;6.940;2023-02-16T16:20:29;8.60;99.90
53208;DHT22;39093;52.788;6.940;2023-02-16T16:25:45;8.50;99.90
53208;DHT22;39093;52.788;6.940;2023-02-16T16:28:33;8.50;99.90
53208;DHT22;39093;52.788;6.940;2023-02-16T16:34:00;8.40;99.90
53208;DHT22;39093;52.788;6.940;2023-02-16T16:42:17;8.40;99.90
53208;DHT22;39093;52.788;6.940;2023-02-16T16:44:56;8.40;99.90
53208;DHT22;39093;52.788;6.940;2023-02-16T16:47:33;8.40;99.90
53208;DHT22;39093;52.788;6.940;2023-02-16T16:52:41;8.40;99.90
53208;DHT22;39093;52.788;6.940;2023-02-16T16:57:49;8.40;99.90
53208;DHT22;39093;52.788;6.940;2023-02-16T17:00:18;8.40;99.90
53208;DHT22;39093;52.788;6.940;2023-02-16T17:02:46;8.40;99.90
53208;DHT22;39093;52.788;6.940;2023-02-16T17:05:13;8.40;99.90
53208;DHT22;39093;52.788;6.940;2023-02-16T17:07:40;8.40;99.90
53208;DHT22;39093;52.788;6.940;2023-02-16T17:10:07;8.40;99.90
53208;DHT22;39093;52.788;6.940;2023-02-16T17:12:35;8.40;99.90
53208;DHT22;39093;52.788;6.940;2023-02-16T17:15:02;8.40;99.90
53208;DHT22;39093;52.788;6.940;2023-02-16T17:17:31;8.40;99.90
53208;DHT22;39093;52.788;6.940;2023-02-16T17:19:58;8.40;99.90
53208;DHT22;39093;52.788;6.940;2023-02-16T17:22:24;8.40;99.90
53208;DHT22;39093;52.788;6.940;2023-02-16T17:24:51;8.50;99.90
53208;DHT22;39093;52.788;6.940;2023-02-16T17:27:18;8.40;99.90
53208;DHT22;39093;52.788;6.940;2023-02-16T17:29:45;8.50;99.90
53208;DHT22;39093;52.788;6.940;2023-02-16T17:32:12;8.40;99.90
53208;DHT22;39093;52.788;6.940;2023-02-16T17:34:39;8.40;99.90
53208;DHT22;39093;52.788;6.940;2023-02-16T17:37:06;8.40;99.90
53208;DHT22;39093;52.788;6.940;2023-02-16T17:39:34;8.50;99.90
53208;DHT22;39093;52.788;6.940;2023-02-16T17:42:01;8.30;99.90
53208;DHT22;39093;52.788;6.940;2023-02-16T17:44:29;8.40;99.90
53208;DHT22;39093;52.788;6.940;2023-02-16T17:46:56;8.40;99.90
53208;DHT22;39093;52.788;6.940;2023-02-16T17:49:23;8.50;99.90
53208;DHT22;39093;52.788;6.940;2023-02-16T17:51:50;8.40;99.90
53208;DHT22;39093;52.788;6.940;2023-02-16T17:54:18;8.50;99.90
53208;DHT22;39093;52.788;6.940;2023-02-16T17:56:45;8.40;99.90
53208;DHT22;39093;52.788;6.940;2023-02-16T17:59:13;8.50;99.90
53208;DHT22;39093;52.788;6.940;2023-02-16T18:01:42;8.40;99.90
53208;DHT22;39093;52.788;6.940;2023-02-16T18:04:09;8.50;99.90
53208;DHT22;39093;52.788;6.940;2023-02-16T18:06:36;8.40;99.90
53208;DHT22;39093;52.788;6.940;2023-02-16T18:09:03;8.40;99.90
53208;DHT22;39093;52.788;6.940;2023-02-16T18:11:30;8.40;99.90
53208;DHT22;39093;52.788;6.940;2023-02-16T18:13:57;8.30;99.90
53208;DHT22;39093;52.788;6.940;2023-02-16T18:16:25;8.40;99.90
53208;DHT22;39093;52.788;6.940;2023-02-16T18:18:53;8.40;99.90
53208;DHT22;39093;52.788;6.940;2023-02-16T18:21:20;8.40;99.90
53208;DHT22;39093;52.788;6.940;2023-02-16T18:23:47;8.40;99.90
53208;DHT22;39093;52.788;6.940;2023-02-16T18:26:15;8.40;99.90
53208;DHT22;39093;52.788;6.940;2023-02-16T18:28:42;8.40;99.90
53208;DHT22;39093;52.788;6.940;2023-02-16T18:31:09;8.40;99.90
53208;DHT22;39093;52.788;6.940;2023-02-16T18:33:37;8.30;99.90
53208;DHT22;39093;52.788;6.940;2023-02-16T18:36:04;8.40;99.90
53208;DHT22;39093;52.788;6.940;2023-02-16T18:38:32;8.40;99.90
53208;DHT22;39093;52.788;6.940;2023-02-16T23:15:52;9.30;99.90
53208;DHT22;39093;52.788;6.940;2023-02-16T23:18:19;9.40;99.90
53208;DHT22;39093;52.788;6.940;2023-02-16T23:20:46;9.40;99.90
53208;DHT22;39093;52.788;6.940;2023-02-16T23:23:13;9.40;99.90
53208;DHT22;39093;52.788;6.940;2023-02-16T23:25:48;9.30;99.90
53208;DHT22;39093;52.788;6.940;2023-02-16T23:28:15;9.40;99.90
53208;DHT22;39093;52.788;6.940;2023-02-16T23:30:43;9.50;99.90
53208;DHT22;39093;52.788;6.940;2023-02-16T23:33:12;9.50;99.90
53208;DHT22;39093;52.788;6.940;2023-02-16T23:35:40;9.40;99.90
53208;DHT22;39093;52.788;6.940;2023-02-16T23:38:11;9.50;99.90
53208;DHT22;39093;52.788;6.940;2023-02-16T23:40:39;9.50;99.90
53208;DHT22;39093;52.788;6.940;2023-02-16T23:43:06;9.50;99.90
53208;DHT22;39093;52.788;6.940;2023-02-16T23:45:34;9.50;99.90
53208;DHT22;39093;52.788;6.940;2023-02-16T23:48:00;9.50;99.90
53208;DHT22;39093;52.788;6.940;2023-02-16T23:50:28;9.40;99.90
53208;DHT22;39093;52.788;6.940;2023-02-16T23:52:54;9.40;99.90
53208;DHT22;39093;52.788;6.940;2023-02-16T23:55:22;9.50;99.90